SPHO/AYP METAR and TAF weather

Enter ICAO airport designator
Station Type Date Time Source
SPHO METAR 2022/11/30 17:00 UTC NOAA

SPHO 301700Z 15006KT 120V210 CAVOK 23/M10 Q1020 RMK PP000


Station Type Date Time Source
SPHO Decoded METAR 2022/11/30 17:00 UTC NOAA

Ayacucho, Peru (SPHO) 13-08S 074-13W 2749M
Nov 30, 2022 - 12:00 PM EST / 2022.11.30 1700 UTC
Wind: from the SSE (150 degrees) at 7 MPH (6 KT) (direction variable):0
Visibility: greater than 7 mile(s):0
Temperature: 73 F (23 C)
Dew Point: 14 F (-10 C)
Relative Humidity: 10%
Pressure (altimeter): 30.12 in. Hg (1020 hPa)
ob: SPHO 301700Z 15006KT 120V210 CAVOK 23/M10 Q1020 RMK PP000
cycle: 17

Station Type Date Time Source
SPHO TAF 2022/11/30 18:18 UTC NOAA

TAF TAF
AMD SPHO 300000Z 2918/3018 CNL

Example: see airport list